createdAt,value
2022-10-17T00:02:18.785Z,20.60
2022-10-17T00:05:42.623Z,20.50
2022-10-17T00:09:04.889Z,20.60
2022-10-17T00:12:27.029Z,20.60
2022-10-17T00:15:49.469Z,20.60
2022-10-17T00:19:11.681Z,20.60
2022-10-17T00:22:33.842Z,20.60
2022-10-17T00:26:05.421Z,20.60
2022-10-17T00:29:27.594Z,20.60
2022-10-17T00:32:49.872Z,20.60
2022-10-17T00:36:24.318Z,20.60
2022-10-17T00:39:46.452Z,20.60
2022-10-17T00:43:18.224Z,20.60
2022-10-17T00:46:40.360Z,20.60
2022-10-17T00:50:06.794Z,20.60
2022-10-17T00:53:29.098Z,20.50
2022-10-17T00:56:52.026Z,20.60
2022-10-17T01:00:15.861Z,20.50
2022-10-17T01:03:38.294Z,20.50
2022-10-17T01:07:00.449Z,20.50
2022-10-17T01:10:26.215Z,20.60
2022-10-17T01:14:21.196Z,20.50
2022-10-17T01:18:01.058Z,20.50
2022-10-17T01:21:29.886Z,20.50
2022-10-17T01:25:07.070Z,20.50
2022-10-17T01:29:07.477Z,20.50
2022-10-17T01:32:39.393Z,20.50
2022-10-17T01:36:10.545Z,20.50
2022-10-17T01:39:54.154Z,20.50
2022-10-17T01:43:28.138Z,20.50
2022-10-17T01:50:31.019Z,20.50
2022-10-17T01:54:19.269Z,20.50
2022-10-17T01:57:46.300Z,20.50
2022-10-17T02:01:11.285Z,20.60
2022-10-17T02:04:34.582Z,20.50
2022-10-17T02:07:56.832Z,20.50
2022-10-17T02:11:27.563Z,20.50
2022-10-17T02:15:04.624Z,20.50
2022-10-17T02:18:57.243Z,20.50
2022-10-17T02:22:25.447Z,20.50
2022-10-17T02:26:00.520Z,20.50
2022-10-17T02:30:08.802Z,20.50
2022-10-17T02:33:43.296Z,20.50
2022-10-17T02:37:08.304Z,20.50
2022-10-17T02:40:31.701Z,20.50
2022-10-17T02:43:57.658Z,20.50
2022-10-17T02:47:28.115Z,20.50
2022-10-17T02:51:28.736Z,20.50
2022-10-17T02:55:14.271Z,20.50
2022-10-17T02:58:38.634Z,20.50
2022-10-17T03:02:06.612Z,20.50
2022-10-17T03:05:30.006Z,20.50
2022-10-17T03:08:52.180Z,20.50
2022-10-17T03:12:14.305Z,20.50
2022-10-17T03:15:36.550Z,20.60
2022-10-17T03:18:58.860Z,20.50
2022-10-17T03:22:21.137Z,20.50
2022-10-17T03:25:43.394Z,20.50
2022-10-17T03:29:07.044Z,20.50
2022-10-17T03:32:32.795Z,20.50
2022-10-17T03:35:55.040Z,20.50
2022-10-17T03:39:17.481Z,20.50
2022-10-17T03:42:40.451Z,20.50
2022-10-17T03:46:03.587Z,20.50
2022-10-17T03:49:25.800Z,20.50
2022-10-17T03:52:49.244Z,20.50
2022-10-17T03:56:14.590Z,20.50
2022-10-17T03:59:36.847Z,20.50
2022-10-17T04:03:04.530Z,20.50
2022-10-17T04:06:27.248Z,20.50
2022-10-17T04:09:49.572Z,20.50
2022-10-17T04:13:17.139Z,20.50
2022-10-17T04:16:39.692Z,20.50
2022-10-17T04:20:08.097Z,20.50
2022-10-17T04:23:30.686Z,20.50
2022-10-17T04:26:58.965Z,20.50
2022-10-17T04:30:24.045Z,20.50
2022-10-17T04:33:50.398Z,20.50
2022-10-17T04:37:12.678Z,20.50
2022-10-17T04:40:36.261Z,20.50
2022-10-17T04:43:58.988Z,20.50
2022-10-17T04:47:22.194Z,20.50
2022-10-17T04:50:57.341Z,20.50
2022-10-17T04:54:42.157Z,20.50
2022-10-17T04:58:05.826Z,20.40
2022-10-17T05:01:28.423Z,20.50
2022-10-17T05:04:52.730Z,20.50
2022-10-17T05:08:16.119Z,20.50
2022-10-17T05:11:39.390Z,20.50
2022-10-17T05:15:01.561Z,20.50
2022-10-17T05:18:24.431Z,20.40
2022-10-17T05:21:47.243Z,20.50
2022-10-17T05:25:09.762Z,20.50
2022-10-17T05:28:32.023Z,20.40
2022-10-17T05:31:56.332Z,20.50
2022-10-17T05:35:18.686Z,20.60
2022-10-17T05:38:41.930Z,20.50
2022-10-17T05:42:05.434Z,20.50
2022-10-17T05:45:28.804Z,20.60
2022-10-17T05:48:52.971Z,20.60
2022-10-17T05:52:15.218Z,20.60
2022-10-17T05:55:59.254Z,20.60
2022-10-17T05:59:21.781Z,20.60
2022-10-17T06:02:48.709Z,20.60
2022-10-17T06:06:14.461Z,20.60
2022-10-17T06:09:40.051Z,20.70
2022-10-17T06:13:03.369Z,20.70
2022-10-17T06:16:25.955Z,20.70
2022-10-17T06:19:48.205Z,20.70
2022-10-17T06:23:11.203Z,20.70
2022-10-17T06:26:49.871Z,20.70
2022-10-17T06:30:12.558Z,20.60
2022-10-17T06:33:35.248Z,20.60
2022-10-17T06:36:58.451Z,20.60
2022-10-17T06:40:20.698Z,20.60
2022-10-17T06:43:47.202Z,20.60
2022-10-17T06:47:28.019Z,20.60
2022-10-17T06:50:54.062Z,20.60
2022-10-17T06:54:18.989Z,20.60
2022-10-17T06:58:13.688Z,20.60
2022-10-17T07:01:41.867Z,20.50
2022-10-17T07:05:07.466Z,20.60
2022-10-17T07:08:30.265Z,20.60
2022-10-17T07:11:55.072Z,20.60
2022-10-17T07:15:17.329Z,20.60
2022-10-17T07:18:40.929Z,20.60
2022-10-17T07:22:03.578Z,20.60
2022-10-17T07:25:28.378Z,20.70
2022-10-17T07:28:56.031Z,20.70
2022-10-17T07:32:31.949Z,20.70
2022-10-17T07:35:54.772Z,20.70
2022-10-17T07:39:17.229Z,20.70
2022-10-17T07:42:41.084Z,20.70
2022-10-17T07:46:05.198Z,20.70
2022-10-17T07:49:28.396Z,20.70
2022-10-17T07:52:50.837Z,20.70
2022-10-17T07:56:13.454Z,20.70
2022-10-17T07:59:37.669Z,20.70
2022-10-17T08:02:59.912Z,20.80
2022-10-17T08:06:22.039Z,20.80
2022-10-17T08:09:44.625Z,20.80
2022-10-17T08:13:06.822Z,20.80
2022-10-17T08:16:28.981Z,20.80
2022-10-17T08:19:51.132Z,20.80
2022-10-17T08:23:13.307Z,20.80
2022-10-17T08:26:39.274Z,20.80
2022-10-17T08:30:05.054Z,20.80
2022-10-17T08:33:27.189Z,20.80
2022-10-17T08:36:49.468Z,20.80
2022-10-17T08:40:35.431Z,20.70
2022-10-17T08:44:16.348Z,20.70
2022-10-17T08:47:42.091Z,20.70
2022-10-17T08:51:21.891Z,20.70
2022-10-17T08:54:47.085Z,20.70
2022-10-17T08:58:23.028Z,20.80
2022-10-17T09:01:58.643Z,20.80
2022-10-17T09:05:51.404Z,20.80
2022-10-17T09:09:25.126Z,20.90
2022-10-17T09:13:24.481Z,20.80
2022-10-17T09:17:15.470Z,20.80
2022-10-17T09:20:49.419Z,20.80
2022-10-17T09:24:35.654Z,20.70
2022-10-17T09:28:12.498Z,20.70
2022-10-17T09:31:42.221Z,20.80
2022-10-17T09:35:04.772Z,20.70
2022-10-17T09:38:36.531Z,20.70
2022-10-17T09:42:00.919Z,20.70
2022-10-17T09:45:28.245Z,20.70
2022-10-17T09:49:05.235Z,20.80
2022-10-17T09:52:34.271Z,20.80
2022-10-17T09:55:59.222Z,20.80
2022-10-17T09:59:34.930Z,20.80
2022-10-17T10:03:22.617Z,20.80
2022-10-17T10:07:06.048Z,20.80
2022-10-17T10:10:29.922Z,20.70
2022-10-17T10:13:52.496Z,20.80
2022-10-17T10:17:41.719Z,20.70
2022-10-17T10:21:16.829Z,20.70
2022-10-17T10:24:39.261Z,20.80
2022-10-17T10:28:02.369Z,20.80
2022-10-17T10:31:40.237Z,20.90
2022-10-17T10:35:02.431Z,20.90
2022-10-17T10:38:25.155Z,20.90
2022-10-17T10:41:50.601Z,21.00
2022-10-17T10:45:29.264Z,21.10
2022-10-17T10:49:03.267Z,21.10
2022-10-17T10:52:32.941Z,21.10
2022-10-17T10:56:19.934Z,21.10
2022-10-17T11:00:15.593Z,21.10
2022-10-17T11:04:21.840Z,21.10
2022-10-17T11:07:46.909Z,21.10
2022-10-17T11:11:34.377Z,21.10
2022-10-17T11:15:01.742Z,21.10
2022-10-17T11:18:44.553Z,21.10
2022-10-17T11:22:32.625Z,21.10
2022-10-17T11:25:58.913Z,21.10
2022-10-17T11:29:31.402Z,21.10
2022-10-17T11:33:00.737Z,21.10
2022-10-17T11:36:28.129Z,21.10
2022-10-17T11:40:02.585Z,21.10
2022-10-17T11:43:46.169Z,21.10
2022-10-17T11:47:29.573Z,21.10
2022-10-17T11:55:02.047Z,21.00
2022-10-17T11:58:44.305Z,21.00
2022-10-17T12:02:15.966Z,21.00
2022-10-17T12:05:50.970Z,21.00
2022-10-17T12:09:22.128Z,21.00
2022-10-17T12:12:44.321Z,21.00
2022-10-17T12:16:21.842Z,21.00
2022-10-17T12:19:44.137Z,21.00
2022-10-17T12:23:12.436Z,21.00
2022-10-17T12:26:34.630Z,21.00
2022-10-17T12:30:16.530Z,21.00
2022-10-17T12:34:04.483Z,20.90
2022-10-17T12:38:19.039Z,20.90
2022-10-17T12:41:41.353Z,20.90
2022-10-17T12:45:41.690Z,20.90
2022-10-17T12:49:04.509Z,20.90
2022-10-17T12:52:27.142Z,20.90
2022-10-17T12:55:51.818Z,20.90
2022-10-17T12:59:22.327Z,20.90
2022-10-17T13:02:45.453Z,21.00
2022-10-17T13:06:08.002Z,21.00
2022-10-17T13:09:38.013Z,20.90
2022-10-17T13:13:33.648Z,21.00
2022-10-17T13:16:57.663Z,21.00
2022-10-17T13:20:25.555Z,21.00
2022-10-17T13:23:53.156Z,20.90
2022-10-17T13:27:33.101Z,20.90
2022-10-17T13:30:57.055Z,20.90
2022-10-17T13:34:22.525Z,20.90
2022-10-17T13:37:51.553Z,20.90
2022-10-17T13:41:36.304Z,20.90
2022-10-17T13:44:59.615Z,20.80
2022-10-17T13:48:27.362Z,20.90
2022-10-17T13:51:52.621Z,20.90
2022-10-17T13:55:20.096Z,20.90
2022-10-17T13:58:48.318Z,20.90
2022-10-17T14:02:16.151Z,20.90
2022-10-17T14:06:11.842Z,20.90
2022-10-17T14:09:34.254Z,20.80
2022-10-17T14:12:57.991Z,20.80
2022-10-17T14:16:21.221Z,20.80
2022-10-17T14:19:46.036Z,20.90
2022-10-17T14:23:37.213Z,20.80
2022-10-17T14:27:00.135Z,20.80
2022-10-17T14:30:55.296Z,20.80
2022-10-17T14:34:30.814Z,20.80
2022-10-17T14:37:57.836Z,20.80
2022-10-17T14:41:48.068Z,20.80
2022-10-17T14:45:16.583Z,20.80
2022-10-17T14:48:42.453Z,20.80
2022-10-17T14:52:18.631Z,20.80
2022-10-17T14:55:54.382Z,20.80
2022-10-17T14:59:35.570Z,20.80
2022-10-17T15:03:00.840Z,20.80
2022-10-17T15:06:34.224Z,20.80
2022-10-17T15:09:57.094Z,20.70
2022-10-17T15:13:28.232Z,20.70
2022-10-17T15:16:51.724Z,20.70
2022-10-17T15:20:16.816Z,20.70
2022-10-17T15:23:38.864Z,20.70
2022-10-17T15:27:01.071Z,20.70
2022-10-17T15:30:26.196Z,20.80
2022-10-17T15:33:48.492Z,20.70
2022-10-17T15:37:18.939Z,20.80
2022-10-17T15:40:41.731Z,20.70
2022-10-17T15:44:04.082Z,20.70
2022-10-17T15:47:35.501Z,20.70
2022-10-17T15:50:57.777Z,20.70
2022-10-17T15:54:20.018Z,20.70
2022-10-17T15:57:45.084Z,20.60
2022-10-17T16:01:07.624Z,20.60
2022-10-17T16:04:30.606Z,20.60
2022-10-17T16:07:53.986Z,20.60
2022-10-17T16:11:38.946Z,20.70
2022-10-17T16:15:01.050Z,20.60
2022-10-17T16:18:23.225Z,20.70
2022-10-17T16:21:45.397Z,20.70
2022-10-17T16:25:19.737Z,20.60
2022-10-17T16:28:46.125Z,20.60
2022-10-17T16:32:10.081Z,20.60
2022-10-17T16:35:36.540Z,20.60
2022-10-17T16:38:59.941Z,20.60
2022-10-17T16:42:22.465Z,20.60
2022-10-17T16:45:44.590Z,20.70
2022-10-17T16:49:06.918Z,20.60
2022-10-17T16:52:29.421Z,20.70
2022-10-17T16:56:02.879Z,20.70
2022-10-17T16:59:25.976Z,20.70
2022-10-17T17:02:48.751Z,20.70
2022-10-17T17:06:16.781Z,20.60
2022-10-17T17:09:39.946Z,20.60
2022-10-17T17:13:03.184Z,20.70
2022-10-17T17:16:26.938Z,20.60
2022-10-17T17:19:49.142Z,20.70
2022-10-17T17:23:15.730Z,20.70
2022-10-17T17:26:38.937Z,20.80
2022-10-17T17:30:01.077Z,20.80
2022-10-17T17:33:24.885Z,20.90
2022-10-17T17:36:47.239Z,20.90
2022-10-17T17:40:10.008Z,20.90
2022-10-17T17:43:32.296Z,20.90
2022-10-17T17:46:54.496Z,20.90
2022-10-17T17:50:16.718Z,20.90
2022-10-17T17:53:39.361Z,20.90
2022-10-17T17:57:01.469Z,20.90
2022-10-17T18:00:23.736Z,21.00
2022-10-17T18:03:47.076Z,21.00
2022-10-17T18:07:09.215Z,21.00
2022-10-17T18:10:31.413Z,21.00
2022-10-17T18:13:59.558Z,21.00
2022-10-17T18:17:22.012Z,21.00
2022-10-17T18:20:44.784Z,21.00
2022-10-17T18:24:07.940Z,21.00
2022-10-17T18:27:30.193Z,21.00
2022-10-17T18:30:52.462Z,21.00
2022-10-17T18:34:14.665Z,21.00
2022-10-17T18:37:36.848Z,21.00
2022-10-17T18:41:07.518Z,21.00
2022-10-17T18:44:29.792Z,21.00
2022-10-17T18:47:54.818Z,21.00
2022-10-17T18:51:20.202Z,21.00
2022-10-17T18:54:42.393Z,21.00
2022-10-17T18:58:04.589Z,21.00
2022-10-17T19:01:27.623Z,20.90
2022-10-17T19:08:16.933Z,20.90
2022-10-17T19:11:39.621Z,20.90
2022-10-17T19:15:01.830Z,21.00
2022-10-17T19:18:23.948Z,21.00
2022-10-17T19:21:46.894Z,20.90
2022-10-17T19:25:09.487Z,20.90
2022-10-17T19:28:32.492Z,20.90
2022-10-17T19:35:17.906Z,21.00
2022-10-17T19:38:40.368Z,21.00
2022-10-17T19:42:06.686Z,21.00
2022-10-17T19:45:29.357Z,21.00
2022-10-17T19:48:52.069Z,21.00
2022-10-17T19:52:14.264Z,20.90
2022-10-17T19:55:36.461Z,20.90
2022-10-17T19:58:59.387Z,20.90
2022-10-17T20:02:21.562Z,20.90
2022-10-17T20:05:43.880Z,20.90
2022-10-17T20:09:08.801Z,21.00
2022-10-17T20:12:33.744Z,20.90
2022-10-17T20:15:57.341Z,20.90
2022-10-17T20:19:19.963Z,21.00
2022-10-17T20:22:42.136Z,20.90
2022-10-17T20:26:25.309Z,20.90
2022-10-17T20:29:49.398Z,21.00
2022-10-17T20:33:13.844Z,20.90
2022-10-17T20:36:37.476Z,20.90
2022-10-17T20:40:22.602Z,20.90
2022-10-17T20:43:42.062Z,20.90
2022-10-17T20:47:04.670Z,20.90
2022-10-17T20:50:28.623Z,20.90
2022-10-17T20:53:50.809Z,20.90
2022-10-17T20:57:13.004Z,20.80
2022-10-17T21:00:38.300Z,20.90
2022-10-17T21:04:21.368Z,20.80
2022-10-17T21:07:43.519Z,20.80
2022-10-17T21:11:26.664Z,20.80
2022-10-17T21:14:48.853Z,20.80
2022-10-17T21:18:11.014Z,20.80
2022-10-17T21:21:35.700Z,20.80
2022-10-17T21:24:57.823Z,20.80
2022-10-17T21:28:20.000Z,20.80
2022-10-17T21:31:43.998Z,20.80
2022-10-17T21:35:06.686Z,20.80
2022-10-17T21:38:28.971Z,20.80
2022-10-17T21:41:52.097Z,20.80
2022-10-17T21:45:24.882Z,20.80
2022-10-17T21:48:49.065Z,20.80
2022-10-17T21:52:11.391Z,20.80
2022-10-17T21:55:36.517Z,20.80
2022-10-17T21:58:59.189Z,20.80
2022-10-17T22:02:21.370Z,20.80
2022-10-17T22:05:45.076Z,20.70
2022-10-17T22:09:11.392Z,20.70
2022-10-17T22:12:33.713Z,20.80
2022-10-17T22:16:07.940Z,20.70
2022-10-17T22:19:30.070Z,20.70
2022-10-17T22:22:52.160Z,20.70
2022-10-17T22:26:14.942Z,20.70
2022-10-17T22:29:37.145Z,20.70
2022-10-17T22:32:59.285Z,20.70
2022-10-17T22:36:21.595Z,20.70
2022-10-17T22:39:43.725Z,20.70
2022-10-17T22:43:06.013Z,20.70
2022-10-17T22:46:28.541Z,20.70
2022-10-17T22:49:50.668Z,20.70
2022-10-17T22:53:13.021Z,20.70
2022-10-17T22:56:35.278Z,20.70
2022-10-17T22:59:57.476Z,20.70
2022-10-17T23:03:20.746Z,20.70
2022-10-17T23:06:42.877Z,20.70
2022-10-17T23:10:05.401Z,20.70
2022-10-17T23:13:27.582Z,20.70
2022-10-17T23:16:49.706Z,20.70
2022-10-17T23:20:12.066Z,20.70
2022-10-17T23:23:34.383Z,20.70
2022-10-17T23:26:57.077Z,20.70
2022-10-17T23:30:19.306Z,20.70
2022-10-17T23:33:42.164Z,20.60
2022-10-17T23:37:04.267Z,20.70
2022-10-17T23:40:26.765Z,20.60
2022-10-17T23:43:48.951Z,20.60
2022-10-17T23:47:11.114Z,20.70
2022-10-17T23:50:33.339Z,20.60
2022-10-17T23:53:55.560Z,20.60
2022-10-17T23:57:17.676Z,20.60
